Time;durP1;ratioP1;P1;durP2;ratioP2;P2;SDS_P1;SDS_P2;PMS_P1;PMS_P2;Temp;Humidity;BMP_temperature;BMP_pressure;BME280_temperature;BME280_humidity;BME280_pressure;Samples;Min_cycle;Max_cycle;Signal;HPM_P1;HPM_P2
2023/10/11 00:01:05;;;;;;;96.45;46.45;;;;;;;21.49;69.78;101692.63;6035910;23;20486;-82
2023/10/11 00:03:36;;;;;;;91.65;48.33;;;;;;;21.30;69.74;101665.03;6057975;23;20081;-80
2023/10/11 00:06:06;;;;;;;83.60;43.97;;;;;;;21.49;69.89;101704.25;6051566;23;20030;-81
2023/10/11 00:08:40;;;;;;;91.43;46.95;;;;;;;21.31;69.93;101679.38;6052881;23;20383;-79
2023/10/11 00:11:10;;;;;;;97.97;48.03;;;;;;;21.44;69.62;101713.94;6053331;23;20018;-80
2023/10/11 00:13:37;;;;;;;101.93;49.50;;;;;;;21.24;70.31;101689.22;6048548;23;20192;-80
2023/10/11 00:16:07;;;;;;;97.88;50.13;;;;;;;21.26;70.67;101695.28;6017305;23;20052;-81
2023/10/11 00:18:39;;;;;;;119.80;52.75;;;;;;;20.83;70.48;101632.84;6022860;23;20129;-80
2023/10/11 00:21:18;;;;;;;116.40;53.25;;;;;;;21.21;70.91;101694.97;6034642;23;20343;-81
2023/10/11 00:23:50;;;;;;;102.45;52.42;;;;;;;20.62;70.71;101601.94;6004570;23;20026;-81
2023/10/11 00:26:22;;;;;;;112.45;53.65;;;;;;;21.30;71.23;101710.13;6028224;23;20022;-80
2023/10/11 00:28:54;;;;;;;118.90;55.05;;;;;;;21.20;71.06;101701.41;6056113;23;20610;-82
2023/10/11 00:31:21;;;;;;;112.63;55.47;;;;;;;21.21;70.87;101700.38;6038585;23;20023;-79
2023/10/11 00:33:55;;;;;;;119.20;56.90;;;;;;;21.19;71.28;101713.22;6013292;23;20387;-81
2023/10/11 00:36:31;;;;;;;115.05;58.08;;;;;;;20.86;71.39;101648.66;5992840;23;20458;-80
2023/10/11 00:39:01;;;;;;;117.03;58.50;;;;;;;21.24;71.66;101725.19;6038626;23;20022;-78
2023/10/11 00:41:31;;;;;;;133.35;63.70;;;;;;;21.02;71.76;101677.41;6018389;23;20417;-79
2023/10/11 00:44:03;;;;;;;134.63;62.88;;;;;;;21.03;72.07;101677.22;6049869;23;20030;-80
2023/10/11 00:49:39;;;;;;;145.45;64.55;;;;;;;21.12;72.00;101705.84;5994119;23;20285;-80
2023/10/11 00:52:21;;;;;;;143.57;64.65;;;;;;;21.04;71.84;101703.19;5995553;23;20454;-79
2023/10/11 00:54:59;;;;;;;150.00;68.32;;;;;;;21.15;71.67;101730.81;6011092;23;20053;-79
2023/10/11 00:57:28;;;;;;;138.30;66.75;;;;;;;21.13;71.91;101731.00;6048787;23;20323;-80
2023/10/11 00:59:57;;;;;;;132.43;66.82;;;;;;;21.08;72.18;101717.19;6016785;23;20247;-81
2023/10/11 01:02:27;;;;;;;138.80;65.88;;;;;;;21.07;72.39;101731.72;6063887;23;20189;-81
2023/10/11 01:05:01;;;;;;;146.18;71.30;;;;;;;20.81;72.86;101689.69;6057948;23;20393;-80
2023/10/11 01:07:28;;;;;;;148.68;71.70;;;;;;;20.69;73.24;101683.00;6038305;23;20022;-82
2023/10/11 01:09:58;;;;;;;144.57;71.95;;;;;;;20.93;73.39;101725.22;6039763;23;20022;-81
2023/10/11 01:12:25;;;;;;;176.65;75.38;;;;;;;21.04;73.40;101732.88;6053200;23;20137;-77
2023/10/11 01:14:58;;;;;;;158.68;74.82;;;;;;;20.97;73.31;101723.84;6051687;23;20426;-78
2023/10/11 01:17:31;;;;;;;156.25;77.68;;;;;;;21.04;72.82;101724.78;6037727;23;20102;-79
2023/10/11 01:19:59;;;;;;;160.95;80.80;;;;;;;20.70;73.82;101699.03;6060783;23;20015;-79
2023/10/11 01:22:27;;;;;;;163.13;80.53;;;;;;;20.61;74.27;101693.84;6047098;23;20059;-80
2023/10/11 01:24:55;;;;;;;168.63;82.30;;;;;;;20.74;75.15;101729.19;6049755;23;20057;-79
2023/10/11 01:27:25;;;;;;;169.00;82.57;;;;;;;20.43;75.71;101702.13;6026244;23;20428;-79
2023/10/11 01:29:52;;;;;;;151.63;77.10;;;;;;;20.38;76.50;101709.91;6044248;23;20022;-80
2023/10/11 01:32:19;;;;;;;156.13;78.68;;;;;;;20.45;77.08;101735.19;6051070;23;20033;-80
2023/10/11 01:34:47;;;;;;;162.43;80.85;;;;;;;20.24;77.64;101709.63;6055493;23;20133;-81
2023/10/11 01:37:14;;;;;;;120.85;66.28;;;;;;;20.31;78.23;101730.50;6047669;23;20065;-81
2023/10/11 01:39:49;;;;;;;121.95;62.08;;;;;;;20.17;78.53;101719.44;6040880;23;20027;-80
2023/10/11 01:42:23;;;;;;;;;;;;;;;20.21;78.75;101736.09;5999281;23;20097;-79
2023/10/11 01:44:49;;;;;;;104.00;58.60;;;;;;;20.19;78.80;101730.84;6045304;23;19921;-77
2023/10/11 01:47:27;;;;;;;103.10;58.60;;;;;;;20.21;78.17;101736.91;6044937;23;20022;-77
2023/10/11 01:49:54;;;;;;;101.05;55.72;;;;;;;20.14;77.74;101714.34;6034733;23;20395;-80
2023/10/11 01:52:25;;;;;;;101.82;56.17;;;;;;;20.13;78.47;101733.41;6038661;23;20411;-78
2023/10/11 01:54:55;;;;;;;103.35;59.92;;;;;;;20.00;78.66;101721.31;6043040;23;20022;-82
2023/10/11 01:57:27;;;;;;;114.75;59.58;;;;;;;20.02;79.26;101726.50;6046336;23;20029;-81
2023/10/11 01:59:54;;;;;;;107.03;60.75;;;;;;;19.82;79.65;101704.50;6049580;23;20031;-81
2023/10/11 02:02:27;;;;;;;97.82;56.50;;;;;;;19.88;80.14;101724.50;6040913;23;20347;-80
2023/10/11 02:05:05;;;;;;;88.47;52.95;;;;;;;19.82;80.31;101718.78;6037974;23;20030;-78
2023/10/11 02:07:31;;;;;;;83.30;50.65;;;;;;;19.77;80.57;101713.06;6040080;23;20106;-80
2023/10/11 02:09:58;;;;;;;90.38;52.85;;;;;;;19.84;80.79;101726.72;6058877;23;20493;-82
2023/10/11 02:12:26;;;;;;;85.10;52.03;;;;;;;19.67;80.84;101700.78;6047456;23;20531;-79
2023/10/11 02:14:52;;;;;;;85.63;51.83;;;;;;;19.74;80.71;101713.44;6049107;23;20022;-80
2023/10/11 02:17:23;;;;;;;88.68;51.53;;;;;;;19.78;80.66;101722.00;6036970;23;20101;-79
2023/10/11 02:19:53;;;;;;;81.18;51.90;;;;;;;19.87;80.17;101733.63;6030649;23;20022;-81
2023/10/11 02:22:22;;;;;;;108.88;60.08;;;;;;;19.83;79.81;101716.94;6016422;23;20022;-81
2023/10/11 02:24:51;;;;;;;140.13;71.93;;;;;;;20.00;79.34;101736.63;6037542;23;20052;-79
2023/10/11 02:27:26;;;;;;;133.80;67.78;;;;;;;20.05;78.75;101742.38;6036302;23;20323;-81
2023/10/11 02:30:06;;;;;;;132.85;69.70;;;;;;;19.97;78.77;101731.56;5999419;23;20022;-79
2023/10/11 02:32:41;;;;;;;117.20;61.28;;;;;;;20.04;78.50;101736.13;6017460;23;20026;-80
2023/10/11 02:35:18;;;;;;;103.25;59.78;;;;;;;19.98;78.60;101730.59;6037395;23;20391;-81
2023/10/11 02:37:46;;;;;;;117.00;61.08;;;;;;;19.92;77.95;101707.84;6034295;23;20108;-81
2023/10/11 02:40:23;;;;;;;111.28;62.63;;;;;;;20.02;78.56;101729.22;6011040;23;20355;-80
2023/10/11 02:42:57;;;;;;;124.85;62.95;;;;;;;19.67;78.50;101685.44;6023894;23;20467;-79
2023/10/11 02:45:24;;;;;;;124.68;65.30;;;;;;;19.90;78.78;101733.28;6061548;23;20026;-81
2023/10/11 02:48:02;;;;;;;110.35;62.53;;;;;;;19.89;78.97;101728.91;6036072;23;20053;-81
2023/10/11 02:50:36;;;;;;;91.38;54.45;;;;;;;19.84;78.84;101724.88;6044044;23;20019;-80
2023/10/11 02:53:21;;;;;;;98.38;57.95;;;;;;;19.91;78.58;101725.03;6020728;23;20018;-81
2023/10/11 02:55:59;;;;;;;93.15;53.60;;;;;;;19.46;79.09;101669.81;6044313;23;20097;-80
2023/10/11 02:58:29;;;;;;;99.43;56.55;;;;;;;19.92;78.76;101729.41;6009369;23;20054;-79
2023/10/11 03:01:04;;;;;;;93.35;54.85;;;;;;;19.96;78.71;101729.91;6035813;23;20285;-80
2023/10/11 03:03:48;;;;;;;109.43;58.63;;;;;;;19.84;78.77;101722.16;5998792;23;20603;-80
2023/10/11 03:06:15;;;;;;;106.03;58.63;;;;;;;19.99;78.88;101737.66;6010051;23;20474;-80
2023/10/11 03:08:44;;;;;;;103.82;58.42;;;;;;;19.97;78.73;101731.56;6029951;23;20345;-80
2023/10/11 03:11:18;;;;;;;103.45;56.78;;;;;;;19.61;78.50;101678.91;6014605;23;20022;-81
2023/10/11 03:13:45;;;;;;;109.43;57.33;;;;;;;19.99;78.34;101735.78;6037486;23;20026;-79
2023/10/11 03:16:17;;;;;;;100.53;56.42;;;;;;;19.85;78.43;101710.41;6048723;23;20395;-81
2023/10/11 03:18:46;;;;;;;101.22;57.47;;;;;;;19.97;78.32;101726.19;6054998;23;20026;-80
2023/10/11 03:21:19;;;;;;;95.53;55.20;;;;;;;19.80;78.11;101717.28;6037167;23;20525;-80
2023/10/11 03:24:04;;;;;;;99.93;56.15;;;;;;;19.57;78.02;101682.09;6040236;23;20026;-80
2023/10/11 03:26:31;;;;;;;105.68;57.47;;;;;;;19.72;77.76;101707.38;6031924;23;20027;-79
2023/10/11 03:29:17;;;;;;;97.40;56.72;;;;;;;19.84;77.54;101732.94;6048140;23;20733;-81
2023/10/11 03:31:45;;;;;;;100.40;55.72;;;;;;;19.72;77.56;101737.00;6046874;23;20049;-80
2023/10/11 03:34:14;;;;;;;91.10;53.60;;;;;;;19.70;78.08;101739.00;6044769;23;20317;-80
2023/10/11 03:36:52;;;;;;;104.40;58.25;;;;;;;19.62;78.49;101741.69;6059766;23;20340;-81
2023/10/11 03:44:47;;;;;;;95.40;55.05;;;;;;;19.63;78.70;101738.81;6041550;23;20054;-81
2023/10/11 03:47:15;;;;;;;89.53;54.08;;;;;;;19.53;78.89;101715.75;6049370;23;20030;-80
2023/10/11 03:52:19;;;;;;;92.85;55.08;;;;;;;19.67;79.05;101739.31;6068689;23;20520;-80
2023/10/11 03:54:52;;;;;;;97.20;52.67;;;;;;;19.68;78.73;101745.59;6049463;23;20023;-80
2023/10/11 03:57:26;;;;;;;98.20;55.78;;;;;;;19.64;78.90;101745.91;6037725;23;20019;-80
2023/10/11 03:59:54;;;;;;;86.45;51.92;;;;;;;19.66;78.73;101743.03;6030624;23;20018;-79
2023/10/11 04:02:23;;;;;;;94.82;52.05;;;;;;;19.63;78.36;101736.13;6027032;23;20309;-80
2023/10/11 04:04:50;;;;;;;86.35;51.25;;;;;;;19.68;78.20;101750.97;6013756;23;20360;-80
2023/10/11 04:07:23;;;;;;;84.10;49.50;;;;;;;19.61;77.89;101745.38;6064503;23;20030;-79
2023/10/11 04:09:52;;;;;;;83.60;48.33;;;;;;;19.25;78.07;101697.25;6056968;23;20384;-79
2023/10/11 04:12:30;;;;;;;81.57;45.28;;;;;;;19.35;77.71;101703.31;6044412;23;20022;-80
2023/10/11 04:14:58;;;;;;;65.25;35.70;;;;;;;19.65;76.04;101752.13;6031236;23;20313;-79
2023/10/11 04:17:26;;;;;;;64.93;35.78;;;;;;;19.59;75.98;101747.41;6048116;23;20253;-81
2023/10/11 04:22:51;;;;;;;57.10;31.15;;;;;;;19.28;75.27;101707.66;6021601;23;20572;-80
2023/10/11 04:25:22;;;;;;;55.25;31.20;;;;;;;19.40;75.19;101727.88;6044021;23;20089;-79
2023/10/11 04:28:02;;;;;;;51.10;28.27;;;;;;;19.58;75.05;101761.88;6057078;23;20075;-81
2023/10/11 04:30:44;;;;;;;60.20;30.13;;;;;;;19.53;74.61;101751.59;6044055;23;20331;-79
2023/10/11 04:33:13;;;;;;;51.57;25.77;;;;;;;19.33;74.04;101721.47;6026257;23;20451;-79
2023/10/11 04:35:44;;;;;;;53.13;26.33;;;;;;;19.47;73.97;101754.13;6043741;23;20266;-79
2023/10/11 04:38:14;;;;;;;41.28;24.73;;;;;;;19.31;73.63;101723.47;6033427;23;20028;-80
2023/10/11 04:40:54;;;;;;;46.88;23.70;;;;;;;19.45;73.37;101766.94;6033751;23;20018;-81
2023/10/11 04:43:21;;;;;;;43.35;23.92;;;;;;;19.21;73.21;101706.66;6037454;23;20034;-80
2023/10/11 04:45:50;;;;;;;53.95;23.75;;;;;;;19.36;72.71;101734.59;6051489;23;20101;-80
2023/10/11 04:48:36;;;;;;;50.42;23.85;;;;;;;19.38;72.51;101737.97;6043489;23;20113;-80
2023/10/11 04:51:21;;;;;;;52.80;25.08;;;;;;;19.24;72.38;101710.84;6062474;23;20018;-81
2023/10/11 04:53:56;;;;;;;45.75;23.83;;;;;;;19.50;71.88;101753.81;6073512;23;20014;-79
2023/10/11 05:01:58;;;;;;;53.55;29.15;;;;;;;19.64;70.97;101763.91;6050659;23;20022;-80
2023/10/11 05:04:33;;;;;;;53.70;30.83;;;;;;;19.46;70.08;101715.56;6055365;23;20019;-79
2023/10/11 05:07:09;;;;;;;59.47;31.35;;;;;;;19.45;70.70;101748.91;6047535;23;20022;-80
2023/10/11 05:09:40;;;;;;;66.40;34.53;;;;;;;19.38;70.58;101743.34;6052452;23;20478;-80
2023/10/11 05:12:19;;;;;;;62.67;32.97;;;;;;;19.53;70.92;101769.63;6048062;23;20097;-79
2023/10/11 05:17:32;;;;;;;73.18;33.83;;;;;;;19.49;70.67;101777.22;6051231;23;20504;-77
2023/10/11 05:25:39;;;;;;;69.93;34.28;;;;;;;19.40;70.70;101765.56;6049523;23;20261;-80
2023/10/11 05:28:26;;;;;;;60.53;31.25;;;;;;;19.36;71.00;101780.34;6072262;23;20583;-79
2023/10/11 05:31:44;;;;;;;65.55;34.72;;;;;;;19.44;70.40;101793.00;6055285;23;20030;-79
2023/10/11 05:51:19;;;;;;;63.13;32.28;;;;;;;19.54;68.33;101800.91;6046192;23;20521;-78
2023/10/11 05:53:49;;;;;;;67.68;33.15;;;;;;;19.45;68.24;101794.69;6036240;23;20597;-79
2023/10/11 05:56:25;;;;;;;67.28;34.05;;;;;;;19.65;67.53;101806.00;6042395;23;20679;-78
2023/10/11 05:59:04;;;;;;;64.28;32.47;;;;;;;19.28;67.81;101753.44;5983957;23;20129;-79
2023/10/11 06:01:31;;;;;;;69.32;31.63;;;;;;;19.64;68.13;101823.19;6022225;23;20034;-80
2023/10/11 06:04:03;;;;;;;63.45;30.77;;;;;;;19.66;67.68;101815.78;6060907;23;20459;-79
2023/10/11 06:06:42;;;;;;;72.78;31.20;;;;;;;19.57;67.61;101793.38;6011216;23;20512;-78
2023/10/11 06:09:26;;;;;;;63.65;30.88;;;;;;;19.75;67.54;101800.47;6021040;23;20031;-79
2023/10/11 06:12:29;;;;;;;63.95;31.48;;;;;;;19.79;67.53;101808.06;6016595;23;20022;-80
2023/10/11 06:15:05;;;;;;;63.65;32.92;;;;;;;19.91;67.57;101827.44;6030063;23;20027;-80
2023/10/11 06:17:33;;;;;;;75.95;32.17;;;;;;;19.94;67.63;101826.25;6016853;23;20667;-79
2023/10/11 06:20:26;;;;;;;66.65;33.40;;;;;;;19.97;67.40;101831.31;6015564;23;20058;-79
2023/10/11 06:22:56;;;;;;;74.30;33.42;;;;;;;20.07;66.48;101837.34;6019644;23;20078;-79
2023/10/11 06:25:49;;;;;;;65.57;32.85;;;;;;;20.10;66.90;101838.88;6018916;23;20034;-79
2023/10/11 06:28:16;;;;;;;73.43;34.15;;;;;;;20.13;67.04;101852.88;6033876;23;20529;-79
2023/10/11 06:30:46;;;;;;;84.68;39.05;;;;;;;19.85;67.01;101783.16;6028141;23;20318;-80
2023/10/11 06:33:21;;;;;;;80.95;36.97;;;;;;;19.82;66.97;101772.69;6020609;23;20362;-79
2023/10/11 06:35:49;;;;;;;91.55;39.67;;;;;;;20.20;67.54;101839.56;6017992;23;20105;-77
2023/10/11 06:38:16;;;;;;;82.88;40.67;;;;;;;20.11;68.06;101830.63;6010699;23;20236;-77
2023/10/11 06:40:54;;;;;;;98.95;43.33;;;;;;;20.31;68.25;101849.16;6025219;23;20038;-76
2023/10/11 06:43:23;;;;;;;91.95;41.90;;;;;;;20.37;68.21;101853.88;6027762;23;20105;-79
2023/10/11 06:45:50;;;;;;;104.38;45.55;;;;;;;20.20;67.97;101794.56;6013760;23;20023;-77
2023/10/11 06:48:29;;;;;;;103.40;44.97;;;;;;;20.47;68.30;101832.94;6006275;23;20094;-78
2023/10/11 06:51:02;;;;;;;109.10;47.75;;;;;;;20.46;69.00;101847.44;5984447;23;20022;-77
2023/10/11 06:53:45;;;;;;;109.80;49.55;;;;;;;20.52;69.44;101849.44;5983769;23;20022;-77
2023/10/11 06:56:17;;;;;;;113.63;49.17;;;;;;;20.65;68.98;101848.94;5968182;23;20294;-80
2023/10/11 06:58:45;;;;;;;120.95;50.28;;;;;;;20.67;69.02;101849.63;5980438;23;20113;-80
2023/10/11 07:01:14;;;;;;;111.05;49.88;;;;;;;20.68;69.29;101846.75;6004890;23;20186;-80
2023/10/11 07:03:41;;;;;;;114.05;51.58;;;;;;;20.74;69.15;101841.69;6023285;23;20459;-79
2023/10/11 07:06:12;;;;;;;135.65;54.55;;;;;;;20.85;69.14;101858.34;6040339;23;20077;-80
2023/10/11 07:08:53;;;;;;;136.35;56.13;;;;;;;20.69;69.73;101836.81;6021848;23;20031;-78
2023/10/11 07:11:41;;;;;;;126.80;53.27;;;;;;;20.77;70.14;101854.81;6024332;23;20031;-79
2023/10/11 07:14:16;;;;;;;128.15;52.67;;;;;;;20.82;69.70;101855.13;6033464;23;20267;-79
2023/10/11 07:16:50;;;;;;;124.30;52.72;;;;;;;21.01;69.19;101862.81;6005502;23;20053;-81
2023/10/11 07:19:17;;;;;;;131.02;53.15;;;;;;;21.04;68.93;101870.56;5993735;23;20045;-80
2023/10/11 07:24:40;;;;;;;114.82;52.65;;;;;;;21.19;68.13;101875.25;5993783;23;20105;-80
2023/10/11 07:27:13;;;;;;;113.85;48.13;;;;;;;21.24;68.27;101879.13;5994436;23;20050;-77
2023/10/11 07:29:46;;;;;;;107.28;46.85;;;;;;;21.08;68.30;101847.63;6004665;23;20517;-78
2023/10/11 07:32:20;;;;;;;121.28;49.33;;;;;;;20.96;68.50;101830.13;6019392;23;20034;-79
2023/10/11 07:34:48;;;;;;;133.10;53.78;;;;;;;21.26;69.38;101889.72;6005628;23;20406;-79
2023/10/11 07:37:19;;;;;;;124.30;52.55;;;;;;;21.24;68.92;101870.16;6002994;23;20029;-77
2023/10/11 07:39:59;;;;;;;124.93;52.85;;;;;;;21.26;69.22;101877.09;6003922;23;20022;-80
2023/10/11 07:42:36;;;;;;;120.35;52.03;;;;;;;21.05;69.32;101852.53;5977684;23;20533;-77
2023/10/11 07:45:13;;;;;;;136.77;54.83;;;;;;;21.28;69.80;101879.59;5987806;23;20319;-77
2023/10/11 07:47:47;;;;;;;122.45;51.47;;;;;;;21.16;69.46;101851.28;5983527;23;20027;-78
2023/10/11 07:50:22;;;;;;;126.80;52.78;;;;;;;21.35;68.74;101864.38;5999194;23;20322;-77
2023/10/11 07:52:55;;;;;;;113.53;53.78;;;;;;;21.46;68.59;101880.22;5998023;23;20101;-79
2023/10/11 07:55:26;;;;;;;109.65;48.70;;;;;;;21.48;68.20;101880.88;6041480;23;20019;-79
2023/10/11 07:58:01;;;;;;;115.25;48.30;;;;;;;21.47;67.40;101871.09;5990509;23;20360;-77
2023/10/11 08:00:30;;;;;;;116.15;48.88;;;;;;;21.51;67.23;101880.53;5989669;23;20029;-77
2023/10/11 08:03:05;;;;;;;109.10;48.15;;;;;;;21.48;67.33;101880.88;5979157;23;20027;-78
2023/10/11 08:05:53;;;;;;;109.63;49.60;;;;;;;21.40;67.06;101855.75;5999177;23;20279;-78
2023/10/11 08:08:24;;;;;;;104.68;49.65;;;;;;;21.72;66.67;101887.16;6032891;23;20287;-80
2023/10/11 08:10:52;;;;;;;95.85;47.00;;;;;;;21.38;66.80;101836.16;6032843;23;20023;-79
2023/10/11 08:13:26;;;;;;;108.13;47.60;;;;;;;21.13;66.57;101785.81;6037351;23;20033;-77
2023/10/11 08:15:58;;;;;;;99.68;45.05;;;;;;;21.75;66.49;101881.41;6017776;23;20246;-78
2023/10/11 08:18:32;;;;;;;87.28;44.78;;;;;;;21.80;66.11;101876.28;6029516;23;20030;-78
2023/10/11 08:21:00;;;;;;;93.43;44.42;;;;;;;21.84;65.97;101891.13;5996718;23;20264;-78
2023/10/11 08:23:30;;;;;;;90.18;42.63;;;;;;;21.77;66.19;101873.94;5992551;23;20027;-79
2023/10/11 08:25:58;;;;;;;97.53;46.17;;;;;;;21.69;65.76;101860.47;6023402;23;20094;-77
2023/10/11 08:28:34;;;;;;;84.93;41.78;;;;;;;21.86;65.09;101872.84;6010892;23;20447;-79
2023/10/11 08:31:34;;;;;;;77.93;41.25;;;;;;;21.85;64.81;101876.59;6022353;23;20034;-77
2023/10/11 08:34:07;;;;;;;89.55;41.17;;;;;;;21.90;64.79;101874.19;5995554;23;20102;-79
2023/10/11 08:36:51;;;;;;;88.00;39.03;;;;;;;21.95;64.53;101890.72;5974489;23;20035;-80
2023/10/11 08:39:41;;;;;;;80.78;40.00;;;;;;;21.66;64.46;101858.16;6025703;23;20022;-79
2023/10/11 08:42:18;;;;;;;78.53;39.10;;;;;;;21.23;64.36;101768.56;6018736;23;20079;-81
2023/10/11 08:45:01;;;;;;;78.88;37.67;;;;;;;21.92;63.96;101904.59;6020627;23;20029;-78
2023/10/11 08:47:29;;;;;;;80.80;39.63;;;;;;;21.82;63.82;101898.59;6005300;23;20415;-80
2023/10/11 08:50:08;;;;;;;75.35;38.42;;;;;;;21.90;63.68;101878.75;6013675;23;20030;-79
2023/10/11 08:52:38;;;;;;;86.40;39.87;;;;;;;21.68;63.45;101864.22;6026499;23;20347;-79
2023/10/11 08:55:08;;;;;;;78.20;37.45;;;;;;;21.51;63.74;101839.16;6008327;23;20019;-79
2023/10/11 08:57:36;;;;;;;82.82;38.80;;;;;;;21.78;63.76;101902.66;6014173;23;20023;-79
2023/10/11 09:00:17;;;;;;;78.93;37.70;;;;;;;21.04;63.75;101786.03;6026462;23;20632;-77
2023/10/11 09:03:31;;;;;;;84.00;38.55;;;;;;;21.36;63.63;101822.84;5998081;23;20037;-79
2023/10/11 09:06:02;;;;;;;81.95;37.97;;;;;;;21.71;63.46;101874.66;5984214;23;20135;-77
2023/10/11 09:08:35;;;;;;;71.38;37.83;;;;;;;21.68;63.48;101875.88;6011690;23;20023;-80
2023/10/11 09:11:53;;;;;;;73.53;36.38;;;;;;;21.82;63.74;101893.19;5994344;23;20030;-79
2023/10/11 09:14:12;;;;;;;63.00;34.83;;;;;;;21.86;63.56;101897.19;6005731;23;20031;-79
2023/10/11 09:16:44;;;;;;;85.85;40.05;;;;;;;21.69;63.74;101863.19;6015732;23;20022;-79
2023/10/11 09:19:19;;;;;;;71.10;37.75;;;;;;;21.80;63.62;101879.00;6003095;23;20050;-79
2023/10/11 09:22:06;;;;;;;71.80;35.95;;;;;;;21.85;63.60;101876.59;6002421;23;20360;-78
2023/10/11 09:24:41;;;;;;;75.50;38.93;;;;;;;21.98;63.71;101893.03;6041136;23;20509;-77
2023/10/11 09:27:18;;;;;;;78.22;39.65;;;;;;;21.89;63.33;101883.31;5991445;23;20267;-79
2023/10/11 09:29:50;;;;;;;75.53;40.40;;;;;;;22.00;63.27;101895.56;5977352;23;20019;-79
2023/10/11 09:32:27;;;;;;;77.97;39.80;;;;;;;21.85;63.30;101860.38;6001092;23;20409;-77
2023/10/11 09:34:56;;;;;;;82.70;41.97;;;;;;;22.11;63.72;101907.81;6010742;23;20027;-77
2023/10/11 09:37:27;;;;;;;81.25;42.88;;;;;;;22.08;64.11;101892.81;6001038;23;20191;-79
2023/10/11 09:40:08;;;;;;;81.53;42.95;;;;;;;21.92;64.07;101866.75;6017220;23;20029;-76
2023/10/11 09:42:43;;;;;;;71.38;38.67;;;;;;;21.90;64.02;101865.25;6012817;23;20035;-78
2023/10/11 09:45:16;;;;;;;72.07;38.15;;;;;;;22.16;64.37;101911.69;6030500;23;20324;-78
2023/10/11 09:47:54;;;;;;;75.57;39.72;;;;;;;22.22;64.56;101898.50;6020305;23;20035;-79
2023/10/11 09:50:26;;;;;;;73.88;40.55;;;;;;;22.04;64.49;101852.78;6011762;23;20342;-78
2023/10/11 09:53:00;;;;;;;94.30;43.40;;;;;;;22.07;64.02;101855.13;5984804;23;20613;-79
2023/10/11 09:55:36;;;;;;;83.55;42.10;;;;;;;22.47;64.00;101896.38;5973698;23;20465;-78
2023/10/11 09:58:17;;;;;;;84.10;42.25;;;;;;;22.54;63.60;101900.88;6000229;23;20026;-78
2023/10/11 10:01:12;;;;;;;77.05;41.63;;;;;;;22.62;63.99;101894.53;5995267;23;20023;-78
2023/10/11 10:03:52;;;;;;;79.80;42.08;;;;;;;22.60;64.14;101875.81;6004617;23;20242;-77
2023/10/11 10:06:22;;;;;;;81.97;44.35;;;;;;;22.97;63.76;101894.88;6004557;23;20057;-76
2023/10/11 10:12:10;;;;;;;97.53;48.88;;;;;;;23.02;63.50;101896.00;6021101;23;20025;-78
2023/10/11 10:14:45;;;;;;;95.35;48.63;;;;;;;23.11;63.32;101885.94;6005601;23;20104;-79
2023/10/11 10:17:19;;;;;;;100.30;49.72;;;;;;;23.17;63.81;101893.28;5968308;23;20018;-79
2023/10/11 10:19:50;;;;;;;102.68;50.60;;;;;;;23.10;63.84;101861.72;6004077;23;20022;-79
2023/10/11 10:22:31;;;;;;;97.65;49.15;;;;;;;23.34;63.76;101893.06;6021130;23;20301;-80
2023/10/11 10:25:18;;;;;;;95.68;46.72;;;;;;;23.47;64.37;101898.63;5994133;23;20089;-80
2023/10/11 10:27:46;;;;;;;98.03;50.40;;;;;;;23.67;63.49;101888.88;5988874;23;20282;-79
2023/10/11 10:30:21;;;;;;;96.00;48.60;;;;;;;23.80;63.04;101881.94;6044976;23;20023;-79
2023/10/11 10:33:18;;;;;;;78.80;44.53;;;;;;;24.14;62.43;101885.81;6001617;23;20126;-79
2023/10/11 10:35:48;;;;;;;88.22;46.95;;;;;;;24.30;61.90;101871.97;5997955;23;20463;-79
2023/10/11 10:38:22;;;;;;;89.18;47.17;;;;;;;24.48;61.79;101880.50;6017055;23;20074;-77
2023/10/11 10:41:25;;;;;;;97.72;48.83;;;;;;;24.64;61.40;101881.25;6001559;23;20418;-79
2023/10/11 10:44:09;;;;;;;98.63;48.50;;;;;;;24.67;61.75;101865.38;5972250;23;20576;-78
2023/10/11 10:46:59;;;;;;;93.60;48.22;;;;;;;24.84;61.16;101871.31;5991017;23;20278;-78
2023/10/11 10:49:47;;;;;;;94.82;47.90;;;;;;;24.91;60.24;101847.75;6004663;23;20093;-78
2023/10/11 10:52:21;;;;;;;109.93;49.78;;;;;;;25.08;59.97;101858.28;5999652;23;20022;-80
2023/10/11 10:55:03;;;;;;;89.18;48.05;;;;;;;25.08;59.89;101850.13;5995556;23;20027;-79
2023/10/11 10:57:36;;;;;;;89.43;47.70;;;;;;;24.90;59.03;101810.78;5989484;23;20026;-79
2023/10/11 11:00:21;;;;;;;105.95;48.83;;;;;;;24.88;59.67;101815.59;6013746;23;20019;-76
2023/10/11 11:02:56;;;;;;;100.45;50.03;;;;;;;25.01;59.28;101836.53;6039142;23;20276;-78
2023/10/11 11:05:25;;;;;;;91.78;48.38;;;;;;;24.93;58.97;101828.56;6009096;23;20090;-78
2023/10/11 11:08:23;;;;;;;100.20;50.72;;;;;;;24.92;59.42;101843.16;6023591;23;20522;-78
2023/10/11 11:11:19;;;;;;;97.75;46.35;;;;;;;24.83;60.14;101842.50;6037186;23;20030;-79
2023/10/11 11:13:47;;;;;;;100.85;47.20;;;;;;;24.77;60.40;101828.88;6012372;23;20031;-78
2023/10/11 11:16:26;;;;;;;108.18;50.78;;;;;;;24.68;60.13;101812.75;6000634;23;20023;-80
2023/10/11 11:19:00;;;;;;;104.55;51.30;;;;;;;24.70;60.08;101824.25;5969068;23;20325;-79
2023/10/11 11:21:44;;;;;;;112.65;53.60;;;;;;;24.60;60.18;101812.09;6030037;23;20267;-78
2023/10/11 11:24:19;;;;;;;104.45;52.08;;;;;;;24.55;60.54;101815.41;6015243;23;20058;-77
2023/10/11 11:26:47;;;;;;;119.50;53.75;;;;;;;24.55;60.47;101828.97;6008706;23;20023;-78
2023/10/11 11:29:31;;;;;;;103.13;52.05;;;;;;;24.46;60.91;101819.28;6031397;23;20023;-77
2023/10/11 11:32:36;;;;;;;102.85;51.45;;;;;;;24.66;60.46;101816.69;6020609;23;20081;-79
2023/10/11 11:35:10;;;;;;;104.05;52.78;;;;;;;24.40;60.67;101788.34;6017079;23;20074;-80
2023/10/11 11:37:39;;;;;;;108.07;54.05;;;;;;;24.35;61.16;101781.84;6011613;23;20455;-78
2023/10/11 11:40:24;;;;;;;109.28;52.00;;;;;;;24.40;61.23;101801.91;6041058;23;20523;-79
2023/10/11 11:43:00;;;;;;;100.72;48.90;;;;;;;24.41;60.79;101792.72;5996799;23;20362;-78
2023/10/11 11:45:35;;;;;;;98.40;48.58;;;;;;;24.39;60.73;101789.38;6004445;23;20462;-80
2023/10/11 11:48:07;;;;;;;104.47;50.97;;;;;;;24.42;61.07;101791.69;6012919;23;20046;-80
2023/10/11 11:50:39;;;;;;;101.28;49.33;;;;;;;24.30;60.69;101758.84;6008570;23;20029;-80
2023/10/11 11:53:06;;;;;;;95.38;47.88;;;;;;;24.33;60.33;101746.75;5965029;23;20031;-81
2023/10/11 11:55:35;;;;;;;100.13;49.25;;;;;;;23.29;60.69;101581.25;6023503;23;20329;-78
2023/10/11 11:58:10;;;;;;;92.47;48.20;;;;;;;23.24;60.68;101573.72;6027906;23;20039;-78
2023/10/11 12:00:56;;;;;;;106.82;52.13;;;;;;;24.32;60.24;101739.63;6018762;23;20031;-79
2023/10/11 12:03:28;;;;;;;98.18;47.33;;;;;;;24.51;60.38;101767.97;6024005;23;20026;-78
2023/10/11 12:06:21;;;;;;;96.35;51.20;;;;;;;24.45;60.60;101768.75;5965534;23;20034;-80
2023/10/11 12:08:57;;;;;;;100.90;49.10;;;;;;;24.28;60.63;101743.81;6025451;23;20621;-78
2023/10/11 12:11:30;;;;;;;113.85;52.22;;;;;;;24.31;60.65;101757.81;5979812;23;20311;-78
2023/10/11 12:14:03;;;;;;;102.50;50.80;;;;;;;24.29;60.87;101761.75;6009178;23;20026;-78
2023/10/11 12:16:31;;;;;;;108.03;51.92;;;;;;;24.33;61.17;101757.63;6011958;23;20026;-79
2023/10/11 12:19:01;;;;;;;102.47;51.33;;;;;;;24.18;59.88;101689.91;6030941;23;20019;-79
2023/10/11 12:21:37;;;;;;;96.10;48.50;;;;;;;23.97;60.51;101666.41;6031286;23;20494;-79
2023/10/11 12:24:13;;;;;;;100.93;47.83;;;;;;;24.40;60.05;101720.50;6002793;23;20033;-79
2023/10/11 12:27:00;;;;;;;105.40;49.40;;;;;;;24.45;60.83;101745.16;6026122;23;20027;-78
2023/10/11 12:29:37;;;;;;;102.22;49.22;;;;;;;24.23;60.14;101698.28;6019626;23;20119;-81
2023/10/11 12:32:17;;;;;;;107.80;47.25;;;;;;;24.16;60.49;101685.72;6019809;23;20450;-80